createdAt,value
2023-05-10T00:02:25.742Z,99765.98
2023-05-10T00:05:27.629Z,99766.59
2023-05-10T00:08:29.179Z,99761.34
2023-05-10T00:11:30.715Z,99760.39
2023-05-10T00:14:32.289Z,99758.22
2023-05-10T00:17:33.936Z,99754.34
2023-05-10T00:20:35.669Z,99750.48
2023-05-10T00:23:37.406Z,99749.17
2023-05-10T00:26:39.037Z,99752.34
2023-05-10T00:29:40.644Z,99748.16
2023-05-10T00:32:42.333Z,99745.86
2023-05-10T00:35:43.853Z,99744.05
2023-05-10T00:38:45.502Z,99741.90
2023-05-10T00:41:47.133Z,99747.41
2023-05-10T00:44:48.793Z,99752.13
2023-05-10T00:47:50.255Z,99758.36
2023-05-10T00:50:51.954Z,99755.54
2023-05-10T00:53:53.729Z,99755.02
2023-05-10T00:56:55.236Z,99752.96
2023-05-10T00:59:56.858Z,99747.86
2023-05-10T01:02:59.195Z,99745.17
2023-05-10T01:06:01.170Z,99744.02
2023-05-10T01:09:02.763Z,99740.95
2023-05-10T01:12:06.081Z,99740.11
2023-05-10T01:15:09.349Z,99740.66
2023-05-10T01:18:10.963Z,99738.15
2023-05-10T01:21:39.686Z,99739.56
2023-05-10T01:24:56.418Z,99735.54
2023-05-10T01:28:19.260Z,99730.99
2023-05-10T01:31:32.070Z,99730.91
2023-05-10T01:34:43.992Z,99729.30
2023-05-10T01:37:58.457Z,99728.38
2023-05-10T01:41:13.997Z,99730.50
2023-05-10T01:44:30.981Z,99730.91
2023-05-10T01:47:46.185Z,99727.05
2023-05-10T01:50:48.974Z,99727.50
2023-05-10T01:53:55.414Z,99724.84
2023-05-10T01:57:01.439Z,99725.23
2023-05-10T02:00:04.380Z,99721.36
2023-05-10T02:03:07.954Z,99721.07
2023-05-10T02:06:11.655Z,99720.58
2023-05-10T02:09:14.096Z,99719.38
2023-05-10T02:12:16.585Z,99715.98
2023-05-10T02:15:21.838Z,99714.98
2023-05-10T02:18:25.105Z,99712.25
2023-05-10T02:21:27.270Z,99708.71
2023-05-10T02:24:29.422Z,99705.66
2023-05-10T02:27:31.804Z,99703.98
2023-05-10T02:30:34.654Z,99703.66
2023-05-10T02:33:36.377Z,99705.05
2023-05-10T02:36:40.797Z,99706.96
2023-05-10T02:39:42.493Z,99704.44
2023-05-10T02:42:44.959Z,99700.36
2023-05-10T02:45:48.341Z,99696.49
2023-05-10T02:48:49.959Z,99699.09
2023-05-10T02:51:56.697Z,99698.96
2023-05-10T02:55:01.949Z,99696.78
2023-05-10T02:58:04.085Z,99697.52
2023-05-10T03:01:05.815Z,99695.64
2023-05-10T03:04:07.572Z,99697.70
2023-05-10T03:07:09.199Z,99696.52
2023-05-10T03:10:11.057Z,99696.84
2023-05-10T03:13:41.187Z,99694.95
2023-05-10T03:16:48.320Z,99694.93
2023-05-10T03:19:55.441Z,99696.94
2023-05-10T03:23:03.094Z,99700.14
2023-05-10T03:26:05.833Z,99696.83
2023-05-10T03:29:07.639Z,99698.43
2023-05-10T03:32:09.113Z,99691.80
2023-05-10T03:35:12.617Z,99692.70
2023-05-10T03:38:14.478Z,99689.27
2023-05-10T03:41:16.055Z,99692.66
2023-05-10T03:44:17.609Z,99691.94
2023-05-10T03:47:22.695Z,99693.60
2023-05-10T03:50:24.873Z,99693.27
2023-05-10T03:53:26.963Z,99688.86
2023-05-10T03:56:28.518Z,99684.48
2023-05-10T03:59:30.388Z,99685.10
2023-05-10T04:02:32.343Z,99682.49
2023-05-10T04:05:34.169Z,99688.17
2023-05-10T04:08:35.980Z,99688.58
2023-05-10T04:11:37.617Z,99690.39
2023-05-10T04:14:39.481Z,99686.78
2023-05-10T04:17:40.999Z,99685.04
2023-05-10T04:20:42.592Z,99682.16
2023-05-10T04:23:44.222Z,99680.95
2023-05-10T04:26:45.714Z,99683.11
2023-05-10T04:29:47.358Z,99688.95
2023-05-10T04:32:49.559Z,99689.49
2023-05-10T04:35:51.225Z,99686.48
2023-05-10T04:38:53.300Z,99684.58
2023-05-10T04:41:55.169Z,99683.61
2023-05-10T04:44:56.707Z,99684.09
2023-05-10T04:47:58.529Z,99683.72
2023-05-10T04:51:00.215Z,99680.80
2023-05-10T04:54:06.432Z,99683.44
2023-05-10T04:57:09.038Z,99679.21
2023-05-10T05:00:11.252Z,99679.19
2023-05-10T05:03:13.046Z,99677.80
2023-05-10T05:06:14.664Z,99674.87
2023-05-10T05:09:16.217Z,99672.62
2023-05-10T05:12:17.797Z,99668.30
2023-05-10T05:15:19.485Z,99671.69
2023-05-10T05:18:21.190Z,99673.80
2023-05-10T05:21:23.118Z,99668.04
2023-05-10T05:24:24.662Z,99671.41
2023-05-10T05:27:29.314Z,99672.38
2023-05-10T05:30:30.944Z,99669.89
2023-05-10T05:33:32.735Z,99669.82
2023-05-10T05:36:37.715Z,99672.64
2023-05-10T05:39:39.478Z,99670.15
2023-05-10T05:42:41.057Z,99672.05
2023-05-10T05:45:42.715Z,99672.86
2023-05-10T05:48:44.689Z,99672.55
2023-05-10T05:51:46.275Z,99670.56
2023-05-10T05:54:47.928Z,99676.06
2023-05-10T05:57:49.571Z,99675.70
2023-05-10T06:00:51.615Z,99671.04
2023-05-10T06:03:53.610Z,99666.60
2023-05-10T06:06:55.495Z,99671.08
2023-05-10T06:09:57.376Z,99665.33
2023-05-10T06:12:59.047Z,99664.27
2023-05-10T06:16:00.792Z,99665.39
2023-05-10T06:19:03.284Z,99667.45
2023-05-10T06:22:04.922Z,99667.61
2023-05-10T06:25:07.062Z,99670.09
2023-05-10T06:28:09.384Z,99670.88
2023-05-10T06:31:11.022Z,99669.65
2023-05-10T06:34:12.865Z,99671.08
2023-05-10T06:37:14.541Z,99669.02
2023-05-10T06:40:16.225Z,99664.66
2023-05-10T06:43:18.020Z,99663.60
2023-05-10T06:46:19.580Z,99665.55
2023-05-10T06:49:25.470Z,99663.85
2023-05-10T06:52:27.138Z,99662.83
2023-05-10T06:55:29.240Z,99669.78
2023-05-10T06:58:31.041Z,99666.29
2023-05-10T07:01:32.774Z,99670.95
2023-05-10T07:04:34.909Z,99670.58
2023-05-10T07:07:36.764Z,99668.03
2023-05-10T07:10:38.681Z,99663.36
2023-05-10T07:13:40.335Z,99661.63
2023-05-10T07:16:42.176Z,99667.34
2023-05-10T07:19:43.918Z,99669.97
2023-05-10T07:22:45.836Z,99665.33
2023-05-10T07:25:48.685Z,99663.45
2023-05-10T07:28:50.445Z,99662.41
2023-05-10T07:31:52.048Z,99662.23
2023-05-10T07:34:53.656Z,99658.04
2023-05-10T07:37:55.193Z,99662.28
2023-05-10T07:40:56.926Z,99657.71
2023-05-10T07:43:58.822Z,99660.34
2023-05-10T07:47:00.634Z,99660.04
2023-05-10T07:50:02.377Z,99655.76
2023-05-10T07:53:04.030Z,99651.06
2023-05-10T07:56:26.966Z,99652.58
2023-05-10T07:59:28.481Z,99658.75
2023-05-10T08:02:30.414Z,99657.17
2023-05-10T08:05:33.563Z,99653.39
2023-05-10T08:08:37.063Z,99661.77
2023-05-10T08:11:38.890Z,99661.64
2023-05-10T08:14:40.672Z,99660.25
2023-05-10T08:17:43.185Z,99658.27
2023-05-10T08:20:44.796Z,99658.88
2023-05-10T08:23:46.743Z,99656.00
2023-05-10T08:26:48.700Z,99647.33
2023-05-10T08:29:50.797Z,99646.52
2023-05-10T08:32:52.548Z,99654.51
2023-05-10T08:35:54.362Z,99653.67
2023-05-10T08:38:56.119Z,99659.99
2023-05-10T08:42:01.226Z,99661.27
2023-05-10T08:45:03.642Z,99655.08
2023-05-10T08:48:07.247Z,99651.86
2023-05-10T08:51:10.396Z,99658.14
2023-05-10T08:54:12.092Z,99661.33
2023-05-10T08:57:13.709Z,99653.88
2023-05-10T09:00:15.882Z,99654.05
2023-05-10T09:03:17.850Z,99654.70
2023-05-10T09:06:19.766Z,99650.84
2023-05-10T09:09:22.544Z,99648.27
2023-05-10T09:12:24.621Z,99647.17
2023-05-10T09:15:26.379Z,99643.49
2023-05-10T09:18:28.120Z,99643.48
2023-05-10T09:21:30.679Z,99642.25
2023-05-10T09:24:32.274Z,99636.58
2023-05-10T09:27:34.668Z,99643.64
2023-05-10T09:30:36.927Z,99641.09
2023-05-10T09:33:45.755Z,99641.19
2023-05-10T09:37:01.585Z,99630.52
2023-05-10T09:40:06.475Z,99641.93
2023-05-10T09:43:08.615Z,99639.33
2023-05-10T09:46:10.713Z,99632.02
2023-05-10T09:49:15.733Z,99633.61
2023-05-10T09:52:17.477Z,99633.66
2023-05-10T09:55:23.950Z,99634.19
2023-05-10T09:58:25.669Z,99621.08
2023-05-10T10:01:27.604Z,99625.56
2023-05-10T10:04:29.376Z,99629.15
2023-05-10T10:07:31.433Z,99626.27
2023-05-10T10:10:34.204Z,99613.02
2023-05-10T10:13:35.815Z,99618.39
2023-05-10T10:16:39.942Z,99625.64
2023-05-10T10:19:49.510Z,99614.02
2023-05-10T10:22:51.043Z,99606.94
2023-05-10T10:25:54.486Z,99604.86
2023-05-10T10:28:58.578Z,99610.56
2023-05-10T10:32:38.735Z,99613.77
2023-05-10T10:35:40.245Z,99610.79
2023-05-10T10:38:47.657Z,99608.05
2023-05-10T10:41:53.199Z,99607.65
2023-05-10T10:45:13.434Z,99602.57
2023-05-10T10:48:22.896Z,99596.39
2023-05-10T10:51:24.475Z,99595.73
2023-05-10T10:54:29.409Z,99594.63
2023-05-10T10:57:44.441Z,99589.02
2023-05-10T11:00:46.163Z,99587.81
2023-05-10T11:03:59.888Z,99591.06
2023-05-10T11:07:17.694Z,99589.09
2023-05-10T11:10:23.261Z,99590.58
2023-05-10T11:13:46.675Z,99587.94
2023-05-10T11:16:49.578Z,99578.80
2023-05-10T11:20:08.167Z,99568.07
2023-05-10T11:23:14.921Z,99572.59
2023-05-10T11:26:16.640Z,99577.36
2023-05-10T11:29:18.357Z,99580.40
2023-05-10T11:32:20.686Z,99577.33
2023-05-10T11:35:22.338Z,99562.15
2023-05-10T11:38:23.986Z,99560.33
2023-05-10T11:41:26.386Z,99560.89
2023-05-10T11:44:32.429Z,99563.29
2023-05-10T11:47:34.229Z,99568.64
2023-05-10T11:50:35.931Z,99560.87
2023-05-10T11:53:38.030Z,99557.83
2023-05-10T11:56:40.741Z,99556.27
2023-05-10T11:59:43.301Z,99557.06
2023-05-10T12:02:45.136Z,99550.73
2023-05-10T12:05:47.086Z,99552.08
2023-05-10T12:08:49.587Z,99557.41
2023-05-10T12:11:57.165Z,99550.23
2023-05-10T12:14:58.694Z,99544.48
2023-05-10T12:18:23.928Z,99544.94
2023-05-10T12:21:25.938Z,99538.70
2023-05-10T12:24:27.502Z,99534.72
2023-05-10T12:27:48.654Z,99543.31
2023-05-10T12:30:54.608Z,99539.84
2023-05-10T12:33:56.134Z,99541.55
2023-05-10T12:36:57.771Z,99540.18
2023-05-10T12:39:59.281Z,99537.25
2023-05-10T12:43:00.939Z,99536.98
2023-05-10T12:46:12.806Z,99531.97
2023-05-10T12:49:14.324Z,99531.85
2023-05-10T12:52:15.842Z,99523.70
2023-05-10T12:55:17.359Z,99515.65
2023-05-10T12:58:34.357Z,99511.92
2023-05-10T13:01:37.095Z,99516.61
2023-05-10T13:04:38.807Z,99519.30
2023-05-10T13:07:40.548Z,99510.23
2023-05-10T13:10:42.231Z,99503.75
2023-05-10T13:13:43.776Z,99504.55
2023-05-10T13:16:45.460Z,99504.75
2023-05-10T13:19:47.277Z,99504.84
2023-05-10T13:22:50.588Z,99495.20
2023-05-10T13:25:53.609Z,99498.35
2023-05-10T13:28:55.298Z,99500.78
2023-05-10T13:31:56.984Z,99498.70
2023-05-10T13:34:58.570Z,99490.23
2023-05-10T13:38:00.241Z,99486.10
2023-05-10T13:41:01.711Z,99481.42
2023-05-10T13:44:03.452Z,99486.00
2023-05-10T13:47:05.324Z,99483.94
2023-05-10T13:50:07.494Z,99480.13
2023-05-10T13:53:09.111Z,99474.67
2023-05-10T13:56:10.609Z,99465.32
2023-05-10T13:59:12.239Z,99463.10
2023-05-10T14:02:14.039Z,99465.48
2023-05-10T14:05:17.056Z,99454.98
2023-05-10T14:08:19.712Z,99459.02
2023-05-10T14:11:23.241Z,99464.89
2023-05-10T14:14:26.116Z,99463.98
2023-05-10T14:17:27.803Z,99459.89
2023-05-10T14:20:29.411Z,99456.20
2023-05-10T14:23:31.391Z,99453.11
2023-05-10T14:26:32.869Z,99453.46
2023-05-10T14:29:34.463Z,99443.86
2023-05-10T14:32:36.040Z,99449.44
2023-05-10T14:35:37.678Z,99446.31
2023-05-10T14:38:39.142Z,99449.75
2023-05-10T14:41:40.769Z,99450.02
2023-05-10T14:44:42.290Z,99443.83
2023-05-10T14:47:43.842Z,99446.80
2023-05-10T14:50:46.270Z,99447.40
2023-05-10T14:53:48.494Z,99450.24
2023-05-10T14:56:50.007Z,99441.74
2023-05-10T14:59:51.690Z,99443.90
2023-05-10T15:02:53.852Z,99445.18
2023-05-10T15:05:55.894Z,99444.52
2023-05-10T15:08:57.490Z,99439.80
2023-05-10T15:11:59.140Z,99442.16
2023-05-10T15:15:00.736Z,99444.29
2023-05-10T15:18:02.345Z,99439.86
2023-05-10T15:21:05.024Z,99439.04
2023-05-10T15:24:08.092Z,99432.66
2023-05-10T15:27:10.655Z,99432.36
2023-05-10T15:30:13.880Z,99430.63
2023-05-10T15:33:15.507Z,99430.21
2023-05-10T15:36:17.067Z,99421.16
2023-05-10T15:39:18.631Z,99422.79
2023-05-10T15:42:20.197Z,99422.73
2023-05-10T15:45:21.867Z,99423.83
2023-05-10T15:48:23.626Z,99417.73
2023-05-10T15:51:25.893Z,99420.20
2023-05-10T15:54:27.609Z,99418.79
2023-05-10T15:57:29.271Z,99418.92
2023-05-10T16:00:30.830Z,99419.22
2023-05-10T16:03:35.879Z,99422.91
2023-05-10T16:06:38.975Z,99420.01
2023-05-10T16:09:40.540Z,99421.95
2023-05-10T16:12:42.230Z,99422.91
2023-05-10T16:15:44.063Z,99418.33
2023-05-10T16:18:45.803Z,99427.23
2023-05-10T16:21:47.751Z,99425.42
2023-05-10T16:24:49.687Z,99426.15
2023-05-10T16:27:51.402Z,99425.90
2023-05-10T16:30:53.054Z,99427.63
2023-05-10T16:33:54.667Z,99423.09
2023-05-10T16:36:56.183Z,99420.83
2023-05-10T16:39:57.774Z,99430.84
2023-05-10T16:42:59.332Z,99431.08
2023-05-10T16:46:00.932Z,99430.88
2023-05-10T16:49:02.720Z,99443.58
2023-05-10T16:52:04.321Z,99445.94
2023-05-10T16:55:06.286Z,99446.21
2023-05-10T16:58:07.859Z,99444.64
2023-05-10T17:01:09.452Z,99441.25
2023-05-10T17:04:11.096Z,99445.66
2023-05-10T17:07:12.968Z,99445.59
2023-05-10T17:10:14.876Z,99453.53
2023-05-10T17:13:16.986Z,99458.02
2023-05-10T17:16:18.617Z,99458.34
2023-05-10T17:19:20.272Z,99457.92
2023-05-10T17:22:21.821Z,99454.76
2023-05-10T17:25:23.564Z,99460.81
2023-05-10T17:28:25.233Z,99464.86
2023-05-10T17:31:27.146Z,99471.45
2023-05-10T17:34:28.759Z,99468.17
2023-05-10T17:37:30.638Z,99472.57
2023-05-10T17:40:32.238Z,99472.52
2023-05-10T17:43:33.972Z,99477.05
2023-05-10T17:46:35.604Z,99480.70
2023-05-10T17:49:37.252Z,99485.59
2023-05-10T17:52:39.105Z,99486.86
2023-05-10T17:55:41.449Z,99488.44
2023-05-10T17:58:43.016Z,99494.13
2023-05-10T18:01:44.795Z,99501.42
2023-05-10T18:04:46.537Z,99500.22
2023-05-10T18:07:48.271Z,99510.67
2023-05-10T18:10:49.952Z,99515.77
2023-05-10T18:13:51.486Z,99516.89
2023-05-10T18:16:53.133Z,99522.27
2023-05-10T18:19:54.688Z,99528.50
2023-05-10T18:22:56.500Z,99526.73
2023-05-10T18:25:58.097Z,99529.39
2023-05-10T18:29:01.381Z,99533.46
2023-05-10T18:32:03.452Z,99535.98
2023-05-10T18:35:06.360Z,99537.02
2023-05-10T18:38:08.091Z,99544.44
2023-05-10T18:41:09.762Z,99543.48
2023-05-10T18:44:11.725Z,99544.28
2023-05-10T18:47:13.318Z,99550.94
2023-05-10T18:50:14.951Z,99552.23
2023-05-10T18:53:16.585Z,99556.41
2023-05-10T18:56:18.215Z,99558.96
2023-05-10T18:59:19.805Z,99565.34
2023-05-10T19:02:21.367Z,99567.08
2023-05-10T19:05:22.992Z,99574.20
2023-05-10T19:08:24.587Z,99576.52
2023-05-10T19:11:26.178Z,99575.23
2023-05-10T19:14:29.026Z,99580.15
2023-05-10T19:17:31.691Z,99581.41
2023-05-10T19:20:33.435Z,99581.91
2023-05-10T19:23:35.406Z,99581.30
2023-05-10T19:26:37.131Z,99584.66
2023-05-10T19:29:38.759Z,99585.20
2023-05-10T19:32:40.420Z,99585.77
2023-05-10T19:35:42.153Z,99589.33
2023-05-10T19:38:43.770Z,99584.55
2023-05-10T19:41:45.388Z,99586.36
2023-05-10T19:44:47.080Z,99590.27
2023-05-10T19:47:48.791Z,99592.05
2023-05-10T19:50:51.666Z,99592.50
2023-05-10T19:53:53.316Z,99597.95
2023-05-10T19:56:54.950Z,99596.73
2023-05-10T19:59:56.491Z,99601.37
2023-05-10T20:02:58.237Z,99598.90
2023-05-10T20:06:00.972Z,99601.63
2023-05-10T20:09:02.674Z,99600.45
2023-05-10T20:12:04.359Z,99599.31
2023-05-10T20:15:07.343Z,99600.36
2023-05-10T20:18:09.180Z,99605.27
2023-05-10T20:21:10.907Z,99603.41
2023-05-10T20:24:12.510Z,99605.08
2023-05-10T20:27:19.483Z,99606.70
2023-05-10T20:30:21.188Z,99606.23
2023-05-10T20:33:22.919Z,99602.90
2023-05-10T20:36:24.602Z,99603.55
2023-05-10T20:39:26.176Z,99603.14
2023-05-10T20:42:27.753Z,99602.10
2023-05-10T20:45:29.362Z,99599.29
2023-05-10T20:48:32.313Z,99597.90
2023-05-10T20:51:33.948Z,99596.36
2023-05-10T20:54:35.538Z,99604.84
2023-05-10T20:57:37.166Z,99603.90
2023-05-10T21:00:38.836Z,99604.52
2023-05-10T21:03:40.488Z,99603.31
2023-05-10T21:06:43.354Z,99605.66
2023-05-10T21:09:44.907Z,99609.60
2023-05-10T21:12:46.370Z,99609.31
2023-05-10T21:15:48.099Z,99605.95
2023-05-10T21:18:49.751Z,99608.07
2023-05-10T21:21:51.538Z,99606.18
2023-05-10T21:24:53.153Z,99603.16
2023-05-10T21:27:54.738Z,99600.64
2023-05-10T21:30:56.177Z,99598.55
2023-05-10T21:33:58.102Z,99594.90
2023-05-10T21:36:59.709Z,99601.80
2023-05-10T21:40:02.008Z,99604.02
2023-05-10T21:43:03.642Z,99605.36
2023-05-10T21:46:05.248Z,99608.21
2023-05-10T21:49:06.997Z,99606.81
2023-05-10T21:52:08.452Z,99610.61
2023-05-10T21:55:10.065Z,99611.51
2023-05-10T21:58:11.672Z,99610.01
2023-05-10T22:01:13.355Z,99612.89
2023-05-10T22:04:14.954Z,99611.42
2023-05-10T22:07:16.446Z,99614.04
2023-05-10T22:10:18.325Z,99615.79
2023-05-10T22:13:20.185Z,99613.89
2023-05-10T22:16:22.235Z,99616.80
2023-05-10T22:19:23.911Z,99618.07
2023-05-10T22:22:25.450Z,99618.55
2023-05-10T22:25:27.146Z,99618.89
2023-05-10T22:28:29.351Z,99617.43
2023-05-10T22:31:31.055Z,99615.93
2023-05-10T22:34:33.752Z,99621.86
2023-05-10T22:37:35.390Z,99621.06
2023-05-10T22:40:36.934Z,99620.09
2023-05-10T22:43:38.579Z,99624.14
2023-05-10T22:46:40.145Z,99623.60
2023-05-10T22:49:41.644Z,99626.76
2023-05-10T22:52:43.249Z,99623.34
2023-05-10T22:55:44.930Z,99624.27
2023-05-10T22:58:49.620Z,99619.80
2023-05-10T23:01:51.218Z,99619.11
2023-05-10T23:04:52.884Z,99619.15
2023-05-10T23:07:54.368Z,99618.22
2023-05-10T23:10:55.997Z,99623.17
2023-05-10T23:13:57.491Z,99626.92
2023-05-10T23:16:59.092Z,99627.31
2023-05-10T23:20:00.601Z,99629.27
2023-05-10T23:23:02.326Z,99631.78
2023-05-10T23:26:04.109Z,99628.29
2023-05-10T23:29:05.767Z,99630.03
2023-05-10T23:32:07.400Z,99627.38
2023-05-10T23:35:08.974Z,99627.27
2023-05-10T23:38:10.625Z,99638.08
2023-05-10T23:41:12.108Z,99640.43
2023-05-10T23:44:13.677Z,99639.77
2023-05-10T23:47:15.189Z,99641.98
2023-05-10T23:50:17.085Z,99639.74
2023-05-10T23:53:19.004Z,99643.11
2023-05-10T23:56:20.618Z,99639.93
2023-05-10T23:59:22.130Z,99639.16
